Time;durP1;ratioP1;P1;durP2;ratioP2;P2;SDS_P1;SDS_P2;PMS_P1;PMS_P2;Temp;Humidity;BMP_temperature;BMP_pressure;BME280_temperature;BME280_humidity;BME280_pressure;Samples;Min_cycle;Max_cycle;Signal;HPM_P1;HPM_P2
2022/04/28 00:00:34;;;;;;;15.68;7.32;;;;;;;6.41;70.49;102802.41;4988224;28;20034;-77
2022/04/28 00:03:00;;;;;;;14.13;7.22;;;;;;;6.39;70.85;102805.03;4986961;28;20126;-77
2022/04/28 00:05:26;;;;;;;12.00;7.07;;;;;;;6.34;71.34;102806.91;4968681;28;20379;-77
2022/04/28 00:07:52;;;;;;;13.75;6.90;;;;;;;6.29;71.31;102811.38;4970501;28;20030;-76
2022/04/28 00:10:18;;;;;;;15.18;7.07;;;;;;;6.25;71.36;102818.44;4971679;28;20084;-76
2022/04/28 00:12:44;;;;;;;10.05;6.88;;;;;;;6.23;71.72;102809.78;4972246;28;20113;-77
2022/04/28 00:15:10;;;;;;;15.52;7.00;;;;;;;6.18;71.50;102814.28;4968654;28;20181;-77
2022/04/28 00:17:35;;;;;;;14.65;7.00;;;;;;;6.14;71.30;102817.84;4971802;28;20035;-79
2022/04/28 00:20:00;;;;;;;11.05;7.13;;;;;;;6.10;71.61;102821.44;4970933;28;20039;-77
2022/04/28 00:22:26;;;;;;;14.05;7.35;;;;;;;6.06;72.32;102811.97;4960868;28;20031;-77
2022/04/28 00:24:51;;;;;;;11.55;7.05;;;;;;;6.00;72.23;102821.66;4971359;28;20534;-77
2022/04/28 00:27:18;;;;;;;17.08;8.25;;;;;;;5.96;72.52;102815.66;4970520;28;20026;-76
2022/04/28 00:29:43;;;;;;;14.57;7.10;;;;;;;5.93;72.29;102816.59;4971606;28;20039;-77
2022/04/28 00:32:09;;;;;;;12.95;7.50;;;;;;;5.91;72.57;102817.53;4971228;28;20043;-80
2022/04/28 00:34:34;;;;;;;13.43;7.38;;;;;;;5.86;72.61;102814.13;4979207;28;20472;-77
2022/04/28 00:36:59;;;;;;;13.00;7.43;;;;;;;5.83;72.83;102814.19;4976292;28;20026;-77
2022/04/28 00:39:25;;;;;;;13.52;7.47;;;;;;;5.79;73.19;102817.78;4968201;28;20109;-77
2022/04/28 00:41:50;;;;;;;13.27;7.75;;;;;;;5.77;73.22;102814.34;4972032;28;20166;-76
2022/04/28 00:44:16;;;;;;;14.43;7.97;;;;;;;5.73;73.75;102810.09;4970771;28;20115;-76
2022/04/28 00:46:43;;;;;;;13.88;7.78;;;;;;;5.71;73.03;102809.25;4971562;28;20387;-76
2022/04/28 00:51:54;;;;;;;17.05;8.18;;;;;;;5.63;73.43;102805.06;4967604;28;20091;-76
2022/04/28 00:54:20;;;;;;;16.70;7.90;;;;;;;5.58;74.07;102806.03;4970500;28;20089;-79
2022/04/28 00:56:45;;;;;;;11.38;8.40;;;;;;;5.56;73.89;102800.84;4982527;28;20027;-80
2022/04/28 00:59:11;;;;;;;13.57;8.20;;;;;;;5.54;73.72;102801.78;4968702;28;20130;-76
2022/04/28 01:01:37;;;;;;;17.13;9.70;;;;;;;5.49;73.95;102799.25;4970612;28;20398;-76
2022/04/28 01:04:03;;;;;;;18.60;9.88;;;;;;;5.47;74.58;102801.03;4968500;28;20104;-76
2022/04/28 01:06:29;;;;;;;16.33;8.63;;;;;;;5.42;74.51;102797.69;4972171;28;20030;-76
2022/04/28 01:08:57;;;;;;;13.80;8.23;;;;;;;5.42;74.62;102808.13;4973383;28;20046;-76
2022/04/28 01:11:23;;;;;;;16.52;8.55;;;;;;;5.37;74.67;102809.97;5001052;28;20031;-76
2022/04/28 01:13:48;;;;;;;17.10;8.77;;;;;;;5.34;74.95;102805.69;4970064;28;20042;-79
2022/04/28 01:16:13;;;;;;;12.70;8.13;;;;;;;5.32;75.46;102806.59;4967720;28;20047;-76
2022/04/28 01:18:39;;;;;;;17.80;8.32;;;;;;;5.30;75.40;102808.38;4969688;28;20037;-77
2022/04/28 01:21:06;;;;;;;14.02;8.27;;;;;;;5.23;75.93;102807.66;4970036;28;20049;-77
2022/04/28 01:23:33;;;;;;;16.95;8.38;;;;;;;5.21;75.64;102808.56;4969442;28;20019;-76
2022/04/28 01:25:59;;;;;;;18.45;8.95;;;;;;;5.16;76.20;102816.47;4969603;28;20022;-77
2022/04/28 01:28:27;;;;;;;15.70;8.52;;;;;;;5.16;75.58;102820.81;4968611;28;20129;-77
2022/04/28 01:30:52;;;;;;;17.70;9.20;;;;;;;5.13;75.81;102810.44;4970401;28;20011;-79
2022/04/28 01:33:18;;;;;;;15.18;8.55;;;;;;;5.09;76.14;102807.03;4968722;28;20407;-79
2022/04/28 01:35:43;;;;;;;18.40;8.88;;;;;;;5.08;76.15;102817.50;4971041;28;20602;-77
2022/04/28 01:38:09;;;;;;;16.13;8.32;;;;;;;5.03;75.94;102815.00;4969297;28;20418;-77
2022/04/28 01:40:34;;;;;;;17.38;9.20;;;;;;;4.98;76.58;102811.63;4972278;28;20114;-77
2022/04/28 01:42:59;;;;;;;12.10;8.40;;;;;;;4.96;76.16;102809.03;4974377;28;20042;-76
2022/04/28 01:45:25;;;;;;;13.50;8.45;;;;;;;4.99;76.90;102815.94;4973492;28;20053;-77
2022/04/28 01:47:50;;;;;;;15.82;9.73;;;;;;;4.99;76.85;102808.13;4975455;28;20015;-76
2022/04/28 01:50:15;;;;;;;15.20;8.70;;;;;;;4.95;77.09;102811.69;4984243;28;20148;-76
2022/04/28 01:55:25;;;;;;;14.88;9.10;;;;;;;4.90;76.49;102806.56;4974784;28;20326;-76
2022/04/28 01:57:51;;;;;;;15.35;9.18;;;;;;;4.87;76.30;102809.22;4976099;28;20062;-76
2022/04/28 02:00:16;;;;;;;13.80;8.90;;;;;;;4.83;76.69;102804.97;4973673;28;20045;-77
2022/04/28 02:02:43;;;;;;;18.90;9.13;;;;;;;4.84;76.94;102808.44;4970000;28;20030;-76
2022/04/28 02:05:09;;;;;;;16.17;8.85;;;;;;;4.82;76.92;102815.41;4973661;28;20066;-77
2022/04/28 02:07:35;;;;;;;15.60;9.02;;;;;;;4.80;77.25;102818.03;4969269;28;20038;-77
2022/04/28 02:10:01;;;;;;;16.60;8.93;;;;;;;4.79;76.90;102818.91;4976226;28;20071;-77
2022/04/28 02:12:27;;;;;;;16.55;9.43;;;;;;;4.78;77.63;102824.16;4974401;28;20078;-77
2022/04/28 02:14:53;;;;;;;16.73;9.20;;;;;;;4.72;77.06;102820.78;4973921;28;20074;-76
2022/04/28 02:17:19;;;;;;;16.08;9.00;;;;;;;4.72;77.25;102819.91;4971732;28;20419;-77
2022/04/28 02:19:44;;;;;;;16.88;8.93;;;;;;;4.70;77.43;102819.09;4972051;28;20034;-77
2022/04/28 02:22:10;;;;;;;15.85;8.55;;;;;;;4.71;77.98;102813.84;4973281;28;20031;-77
2022/04/28 02:24:35;;;;;;;12.38;9.10;;;;;;;4.68;77.38;102824.31;4982539;28;20027;-76
2022/04/28 02:27:01;;;;;;;16.15;9.57;;;;;;;4.70;78.27;102814.72;4972858;28;20105;-77
2022/04/28 02:29:26;;;;;;;14.60;9.13;;;;;;;4.69;77.91;102814.75;4973131;28;20034;-77
2022/04/28 02:31:51;;;;;;;13.18;9.18;;;;;;;4.70;77.96;102814.72;4973183;28;20023;-77
2022/04/28 02:34:17;;;;;;;15.90;9.10;;;;;;;4.67;77.88;102819.13;4972947;28;20594;-77
2022/04/28 02:36:42;;;;;;;16.48;9.70;;;;;;;4.66;77.86;102814.81;4973788;28;20031;-77
2022/04/28 02:39:09;;;;;;;18.73;9.85;;;;;;;4.61;77.90;102801.88;4971817;28;20050;-77
2022/04/28 02:41:35;;;;;;;13.57;9.10;;;;;;;4.66;78.64;102822.63;4966015;28;20560;-77
2022/04/28 02:44:00;;;;;;;19.98;9.43;;;;;;;4.64;78.11;102813.97;4973438;28;20034;-77
2022/04/28 02:46:27;;;;;;;17.63;9.45;;;;;;;4.63;77.88;102809.66;4972781;28;20122;-77
2022/04/28 02:48:52;;;;;;;18.20;10.48;;;;;;;4.62;78.06;102811.41;4973086;28;20023;-77
2022/04/28 02:51:18;;;;;;;19.52;10.00;;;;;;;4.62;78.33;102810.53;4970151;28;20113;-78
2022/04/28 02:53:43;;;;;;;21.05;10.18;;;;;;;4.63;78.35;102814.88;5004919;28;20038;-77
2022/04/28 02:56:08;;;;;;;19.20;10.13;;;;;;;4.63;78.23;102802.69;4987191;28;20077;-77
2022/04/28 02:58:34;;;;;;;14.00;9.57;;;;;;;4.66;78.10;102805.25;4968618;28;20407;-77
2022/04/28 03:01:00;;;;;;;18.75;9.90;;;;;;;4.65;78.64;102806.13;4972562;28;20054;-77
2022/04/28 03:03:26;;;;;;;19.40;10.18;;;;;;;4.65;78.56;102807.88;4972199;28;20041;-78
2022/04/28 03:11:19;;;;;;;17.40;9.93;;;;;;;4.63;78.21;102812.25;4966294;28;20078;-77
2022/04/28 03:13:44;;;;;;;16.33;10.18;;;;;;;4.60;78.10;102809.72;4974127;28;20035;-77
2022/04/28 03:16:10;;;;;;;19.98;10.05;;;;;;;4.60;78.89;102820.13;4985545;28;20074;-78
2022/04/28 03:18:35;;;;;;;21.48;10.23;;;;;;;4.58;78.34;102806.28;4987991;28;20026;-77
2022/04/28 03:21:01;;;;;;;22.30;10.65;;;;;;;4.59;78.24;102808.84;4988611;28;20034;-76
2022/04/28 03:23:26;;;;;;;15.27;10.00;;;;;;;4.61;79.15;102816.66;4972025;28;20031;-76
2022/04/28 03:25:52;;;;;;;17.52;10.10;;;;;;;4.61;78.92;102808.81;4972435;28;20586;-77
2022/04/28 03:28:19;;;;;;;16.90;10.55;;;;;;;4.64;78.70;102800.94;5006032;28;20054;-77
2022/04/28 03:30:50;;;;;;;16.70;11.02;;;;;;;4.64;78.56;102806.16;4973065;28;20031;-77
2022/04/28 03:33:17;;;;;;;18.40;10.93;;;;;;;4.65;78.35;102807.88;4968724;28;20089;-77
2022/04/28 03:35:42;;;;;;;15.50;9.65;;;;;;;4.64;78.38;102813.97;5003667;28;20089;-77
2022/04/28 03:38:12;;;;;;;20.58;9.98;;;;;;;4.65;79.08;102813.94;4971248;28;20443;-77
2022/04/28 03:40:41;;;;;;;23.33;10.65;;;;;;;4.63;78.89;102812.25;4970755;28;20545;-76
2022/04/28 03:43:06;;;;;;;16.80;9.75;;;;;;;4.64;78.98;102812.22;4986559;28;20027;-76
2022/04/28 03:45:33;;;;;;;18.10;10.60;;;;;;;4.63;79.03;102810.50;4974808;28;20415;-77
2022/04/28 03:47:58;;;;;;;21.00;10.65;;;;;;;4.66;78.68;102822.63;4980314;28;20057;-76
2022/04/28 03:50:24;;;;;;;21.90;11.00;;;;;;;4.65;78.22;102816.56;4986353;28;20038;-76
2022/04/28 03:52:49;;;;;;;18.08;10.82;;;;;;;4.66;78.72;102820.03;4986098;28;20118;-76
2022/04/28 03:55:15;;;;;;;18.35;10.68;;;;;;;4.65;78.81;102820.91;4971375;28;20038;-77
2022/04/28 03:57:41;;;;;;;15.88;10.85;;;;;;;4.63;78.97;102825.28;4971977;28;20035;-77
2022/04/28 04:00:07;;;;;;;25.35;11.55;;;;;;;4.67;79.07;102829.56;4970985;28;20089;-77
2022/04/28 04:02:32;;;;;;;21.00;11.55;;;;;;;4.65;78.75;102824.38;4969136;28;20030;-79
2022/04/28 04:04:58;;;;;;;18.60;10.95;;;;;;;4.67;78.90;102822.59;4968349;28;20038;-78
2022/04/28 04:07:28;;;;;;;20.27;10.88;;;;;;;4.63;78.81;102815.72;4994522;28;20030;-78
2022/04/28 04:09:53;;;;;;;18.45;11.02;;;;;;;4.66;78.64;102826.09;4970407;28;20026;-78
2022/04/28 04:12:19;;;;;;;19.30;11.30;;;;;;;4.67;78.78;102829.56;4970774;28;20051;-77
2022/04/28 04:14:44;;;;;;;18.10;11.90;;;;;;;4.65;78.46;102829.59;4971200;28;20455;-78
2022/04/28 04:17:09;;;;;;;20.17;11.10;;;;;;;4.64;78.42;102833.09;4971455;28;20034;-78
2022/04/28 04:19:35;;;;;;;18.73;11.60;;;;;;;4.64;78.84;102830.47;4971289;28;20053;-77
2022/04/28 04:22:00;;;;;;;23.52;11.90;;;;;;;4.64;78.85;102827.03;4965884;28;20103;-78
2022/04/28 04:24:27;;;;;;;24.00;12.18;;;;;;;4.62;78.57;102831.41;4973430;28;20110;-78
2022/04/28 04:26:53;;;;;;;21.10;11.88;;;;;;;4.63;78.76;102826.16;4977673;28;20053;-78
2022/04/28 04:29:18;;;;;;;21.85;13.13;;;;;;;4.63;78.98;102828.75;4975609;28;20478;-76
2022/04/28 04:34:27;;;;;;;24.75;12.15;;;;;;;4.59;79.42;102831.44;4970528;28;20057;-77
2022/04/28 04:36:53;;;;;;;19.60;12.30;;;;;;;4.61;79.00;102832.28;4969807;28;20030;-77
2022/04/28 04:39:18;;;;;;;21.05;13.07;;;;;;;4.60;79.56;102836.63;4968182;28;20180;-77
2022/04/28 04:41:43;;;;;;;21.00;12.63;;;;;;;4.56;78.89;102839.31;4970774;28;20027;-77
2022/04/28 04:44:13;;;;;;;24.45;12.68;;;;;;;4.55;79.40;102837.59;4971193;28;20025;-77
2022/04/28 04:46:39;;;;;;;21.95;12.65;;;;;;;4.54;79.48;102846.31;4962745;28;20392;-77
2022/04/28 04:49:05;;;;;;;21.42;12.27;;;;;;;4.57;79.56;102841.03;4969859;28;20037;-77
2022/04/28 04:51:30;;;;;;;19.55;12.95;;;;;;;4.59;79.87;102852.31;4970913;28;20026;-77
2022/04/28 04:53:56;;;;;;;22.98;12.30;;;;;;;4.60;79.58;102846.22;4970009;28;20403;-77
2022/04/28 04:56:21;;;;;;;18.80;12.63;;;;;;;4.60;79.59;102851.41;4967094;28;20037;-77
2022/04/28 04:58:47;;;;;;;24.52;13.20;;;;;;;4.63;79.60;102856.59;4971392;28;20026;-77
2022/04/28 05:01:12;;;;;;;21.42;13.05;;;;;;;4.63;79.20;102851.38;4971008;28;20388;-77
2022/04/28 05:03:38;;;;;;;24.77;13.10;;;;;;;4.66;79.51;102860.00;4970085;28;20093;-77
2022/04/28 05:06:03;;;;;;;20.58;13.00;;;;;;;4.67;79.10;102856.50;4970822;28;20451;-77
2022/04/28 05:08:29;;;;;;;20.80;13.45;;;;;;;4.72;79.77;102866.84;4970161;28;20113;-77
2022/04/28 05:10:55;;;;;;;22.75;13.27;;;;;;;4.74;79.56;102865.06;4969879;28;20023;-77
2022/04/28 05:13:20;;;;;;;24.83;13.55;;;;;;;4.78;79.35;102878.91;4959888;28;20035;-77
2022/04/28 05:15:47;;;;;;;23.67;13.48;;;;;;;4.79;80.17;102878.88;4968240;28;20047;-77
2022/04/28 05:18:13;;;;;;;26.13;14.07;;;;;;;4.82;79.63;102878.88;4970189;28;20034;-77
2022/04/28 05:20:38;;;;;;;22.33;13.15;;;;;;;4.86;79.97;102890.09;4970046;28;20084;-77
2022/04/28 05:23:03;;;;;;;25.88;14.38;;;;;;;4.88;80.12;102888.31;4969504;28;20872;-77
2022/04/28 05:25:29;;;;;;;27.55;13.40;;;;;;;4.91;80.21;102883.91;4969722;28;20038;-78
2022/04/28 05:27:54;;;;;;;23.63;14.52;;;;;;;4.93;80.45;102886.50;4969994;28;20450;-77
2022/04/28 05:30:20;;;;;;;22.63;13.77;;;;;;;4.97;79.49;102881.19;4967706;28;20091;-77
2022/04/28 05:32:45;;;;;;;25.10;14.10;;;;;;;5.01;79.28;102888.06;4982051;28;20464;-77
2022/04/28 05:35:10;;;;;;;26.35;14.02;;;;;;;5.06;79.17;102893.19;4984946;28;20542;-77
2022/04/28 05:37:37;;;;;;;20.98;14.10;;;;;;;5.12;79.49;102897.44;4983608;28;20027;-77
2022/04/28 05:40:05;;;;;;;24.45;14.63;;;;;;;5.17;79.68;102898.22;5001209;28;20502;-77
2022/04/28 05:47:58;;;;;;;24.65;13.82;;;;;;;5.31;78.44;102904.91;4989654;28;20046;-77
2022/04/28 05:50:24;;;;;;;21.55;15.35;;;;;;;5.35;78.96;102905.72;4959845;28;20383;-77
2022/04/28 05:52:49;;;;;;;26.20;15.02;;;;;;;5.40;79.44;102908.25;4966057;28;20454;-77
2022/04/28 05:55:15;;;;;;;22.95;14.65;;;;;;;5.44;78.73;102915.97;4967903;28;20057;-76
2022/04/28 05:57:40;;;;;;;23.75;14.80;;;;;;;5.49;79.15;102908.06;4968913;28;20031;-77
2022/04/28 06:00:07;;;;;;;26.77;14.23;;;;;;;5.54;79.05;102912.28;4968236;28;20046;-78
2022/04/28 06:02:33;;;;;;;25.67;15.35;;;;;;;5.61;79.34;102910.44;4968787;28;20027;-77
2022/04/28 06:05:00;;;;;;;24.45;14.68;;;;;;;5.64;78.59;102913.84;4998409;28;20753;-77
2022/04/28 06:07:25;;;;;;;25.27;14.95;;;;;;;5.70;78.95;102918.09;4968985;28;20057;-77
2022/04/28 06:09:52;;;;;;;22.95;14.07;;;;;;;5.78;78.07;102923.16;4968412;28;20158;-77
2022/04/28 06:12:18;;;;;;;23.10;14.52;;;;;;;5.82;77.88;102924.81;4999925;28;20121;-77
2022/04/28 06:14:43;;;;;;;24.20;15.52;;;;;;;5.89;78.12;102921.16;4969224;28;20066;-77
2022/04/28 06:17:09;;;;;;;24.67;14.77;;;;;;;5.94;78.33;102927.19;5000549;28;20395;-77
2022/04/28 06:19:34;;;;;;;27.02;15.57;;;;;;;6.02;78.70;102930.50;4969168;28;20051;-78
2022/04/28 06:22:00;;;;;;;33.38;15.50;;;;;;;6.12;78.31;102931.16;4968042;28;20030;-77
2022/04/28 06:24:25;;;;;;;25.52;14.20;;;;;;;6.16;77.89;102936.28;4999867;28;20390;-76
2022/04/28 06:26:51;;;;;;;27.88;14.88;;;;;;;6.24;77.63;102941.34;4969588;28;20110;-77
2022/04/28 06:29:16;;;;;;;24.88;14.85;;;;;;;6.31;77.49;102942.06;4972715;28;20035;-78
2022/04/28 06:31:41;;;;;;;25.85;14.68;;;;;;;6.38;76.99;102938.41;5003697;28;20062;-77
2022/04/28 06:34:07;;;;;;;24.38;14.65;;;;;;;6.46;76.69;102944.34;4972299;28;20019;-77
2022/04/28 06:36:34;;;;;;;25.08;14.40;;;;;;;6.53;76.68;102943.31;4972552;28;20037;-78
2022/04/28 06:39:00;;;;;;;25.02;14.07;;;;;;;6.63;76.83;102950.03;4973218;28;20390;-77
2022/04/28 06:41:25;;;;;;;23.38;14.43;;;;;;;6.70;76.11;102945.50;4966942;28;20030;-77
2022/04/28 06:43:51;;;;;;;25.00;14.57;;;;;;;6.77;76.26;102945.31;4971401;28;20504;-77
2022/04/28 06:46:16;;;;;;;24.05;13.77;;;;;;;6.80;76.13;102953.09;4970725;28;20045;-77
2022/04/28 06:48:41;;;;;;;23.25;14.00;;;;;;;6.88;75.17;102951.16;4972708;28;20022;-77
2022/04/28 06:51:07;;;;;;;28.48;15.02;;;;;;;6.97;75.09;102947.47;4973039;28;20037;-77
2022/04/28 06:53:32;;;;;;;27.42;14.80;;;;;;;7.05;75.07;102945.50;4972929;28;20391;-77
2022/04/28 06:55:58;;;;;;;22.15;13.90;;;;;;;7.14;75.43;102949.63;4972220;28;20045;-76
2022/04/28 06:58:24;;;;;;;25.80;13.40;;;;;;;7.23;74.64;102952.91;4972749;28;20125;-77
2022/04/28 07:00:49;;;;;;;23.48;12.95;;;;;;;7.33;74.33;102958.75;4972472;28;20117;-78
2022/04/28 07:03:15;;;;;;;23.55;14.35;;;;;;;7.44;74.19;102964.53;4972340;28;20049;-76
2022/04/28 07:05:41;;;;;;;22.75;13.88;;;;;;;7.53;73.78;102969.53;5004165;28;20402;-76
2022/04/28 07:08:06;;;;;;;23.30;13.90;;;;;;;7.64;73.86;102964.03;4972060;28;20082;-76
2022/04/28 07:10:32;;;;;;;24.50;13.15;;;;;;;7.76;73.49;102968.91;4971527;28;20114;-76
2022/04/28 07:12:58;;;;;;;26.80;12.85;;;;;;;7.86;72.66;102970.34;4972025;28;20419;-76
2022/04/28 07:15:23;;;;;;;21.48;13.15;;;;;;;7.95;72.29;102973.63;4971997;28;20146;-76
2022/04/28 07:17:49;;;;;;;22.05;12.50;;;;;;;8.07;71.88;102968.91;4972693;28;20399;-76
2022/04/28 07:20:17;;;;;;;23.63;12.95;;;;;;;8.20;71.96;102979.00;4972217;28;20037;-76
2022/04/28 07:22:42;;;;;;;25.58;12.95;;;;;;;8.30;71.16;102980.44;4971907;28;20030;-78
2022/04/28 07:25:08;;;;;;;22.42;12.38;;;;;;;8.37;70.01;102982.00;4971855;28;20030;-79
2022/04/28 07:27:33;;;;;;;21.83;11.73;;;;;;;8.51;70.07;102979.84;4972233;28;20126;-80
2022/04/28 07:29:58;;;;;;;24.52;12.85;;;;;;;8.61;69.46;102986.50;5002542;28;20129;-80
2022/04/28 07:32:24;;;;;;;22.60;12.52;;;;;;;8.70;69.25;102991.47;4971068;28;20406;-80
2022/04/28 07:34:49;;;;;;;21.23;12.13;;;;;;;8.84;69.35;102992.81;4974465;28;20065;-79
2022/04/28 07:37:14;;;;;;;19.05;11.77;;;;;;;8.93;68.34;102992.50;4974185;28;20439;-79
2022/04/28 07:39:39;;;;;;;25.02;12.93;;;;;;;9.05;68.38;102995.56;4970935;28;20031;-80
2022/04/28 07:42:05;;;;;;;22.58;12.13;;;;;;;9.16;68.31;102994.34;4972521;28;20037;-80
2022/04/28 07:44:30;;;;;;;22.67;11.63;;;;;;;9.28;67.34;102994.81;4978749;28;20038;-79
2022/04/28 07:46:56;;;;;;;19.05;12.25;;;;;;;9.35;67.28;102998.94;5002996;28;20022;-79
2022/04/28 07:49:22;;;;;;;22.88;12.57;;;;;;;9.47;67.02;103002.06;4986898;28;20043;-80
2022/04/28 07:51:47;;;;;;;20.95;12.27;;;;;;;9.57;66.44;103004.28;4969730;28;20038;-80
2022/04/28 07:54:13;;;;;;;19.88;11.68;;;;;;;9.67;66.29;103007.47;5002921;28;20031;-77
2022/04/28 07:56:38;;;;;;;21.05;12.00;;;;;;;9.81;66.76;103002.56;4972393;28;20058;-80
2022/04/28 07:59:09;;;;;;;20.27;11.75;;;;;;;9.97;67.03;103008.13;4970699;28;20222;-78
2022/04/28 08:01:34;;;;;;;19.88;12.52;;;;;;;10.08;66.48;103005.13;4972021;28;20039;-79
2022/04/28 08:04:00;;;;;;;23.10;11.48;;;;;;;10.18;65.41;103009.13;4970283;28;20085;-78
2022/04/28 08:06:25;;;;;;;19.92;11.57;;;;;;;10.29;64.94;103012.22;4970962;28;20026;-79
2022/04/28 08:08:50;;;;;;;17.50;10.80;;;;;;;10.41;63.62;103011.78;4974735;28;20050;-79
2022/04/28 08:11:16;;;;;;;20.75;11.57;;;;;;;10.48;63.66;103007.97;4971730;28;20034;-79
2022/04/28 08:13:41;;;;;;;24.25;12.10;;;;;;;10.60;63.88;103015.38;4971217;28;20447;-78
2022/04/28 08:16:06;;;;;;;20.83;12.23;;;;;;;10.72;63.60;103010.56;4971684;28;20406;-79
2022/04/28 08:18:32;;;;;;;22.50;11.23;;;;;;;10.82;63.18;103018.03;4986291;28;20023;-79
2022/04/28 08:20:58;;;;;;;19.85;11.60;;;;;;;10.94;62.96;103022.81;4970232;28;20039;-79
2022/04/28 08:23:24;;;;;;;21.20;10.75;;;;;;;11.07;62.32;103020.53;4971524;28;20030;-79
2022/04/28 08:25:49;;;;;;;22.25;11.43;;;;;;;11.12;61.34;103021.19;4971218;28;20450;-79
2022/04/28 08:28:15;;;;;;;21.55;11.75;;;;;;;11.22;60.87;103021.69;4970360;28;20026;-78
2022/04/28 08:30:40;;;;;;;19.80;10.50;;;;;;;11.38;61.09;103022.75;4970001;28;20018;-79
2022/04/28 08:33:05;;;;;;;23.38;10.95;;;;;;;11.49;61.27;103030.19;4985618;28;20035;-79
2022/04/28 08:35:31;;;;;;;24.83;11.52;;;;;;;11.53;60.00;103029.13;5002688;28;20026;-79
2022/04/28 08:37:57;;;;;;;19.42;10.60;;;;;;;11.70;59.15;103031.91;4971218;28;20398;-79
2022/04/28 08:40:23;;;;;;;16.17;10.57;;;;;;;11.81;59.73;103032.31;4970332;28;20053;-79
2022/04/28 08:42:49;;;;;;;23.90;11.13;;;;;;;11.83;58.98;103025.19;4970136;28;20445;-79
2022/04/28 08:45:25;;;;;;;19.25;11.07;;;;;;;12.00;59.53;103028.84;4970832;28;20030;-79
2022/04/28 08:47:52;;;;;;;19.63;11.40;;;;;;;12.08;59.02;103029.38;4970769;28;20027;-79
2022/04/28 08:50:21;;;;;;;21.38;10.85;;;;;;;12.19;58.19;103016.53;4969301;28;20033;-80
2022/04/28 08:52:48;;;;;;;20.02;10.90;;;;;;;12.28;57.95;103026.66;4985586;28;20026;-79
2022/04/28 08:55:15;;;;;;;15.15;10.60;;;;;;;12.41;57.73;103017.28;4967716;28;20090;-78
2022/04/28 08:57:40;;;;;;;21.13;10.57;;;;;;;12.58;58.18;103023.53;4971047;28;20026;-79
2022/04/28 09:00:06;;;;;;;19.25;10.27;;;;;;;12.73;58.09;103022.78;4985856;28;20034;-79
2022/04/28 09:02:32;;;;;;;20.38;10.82;;;;;;;12.79;56.77;103028.63;4985183;28;20491;-77
2022/04/28 09:05:02;;;;;;;20.27;10.82;;;;;;;12.85;56.31;103023.06;4969014;28;20031;-79
2022/04/28 09:07:36;;;;;;;19.63;10.52;;;;;;;12.96;56.40;103027.81;4970458;28;20069;-79
2022/04/28 09:10:25;;;;;;;15.43;10.27;;;;;;;13.10;57.03;103017.41;4974267;28;20481;-80
2022/04/28 09:15:51;;;;;;;22.35;10.65;;;;;;;13.25;55.34;103007.06;4963487;28;20057;-81
2022/04/28 09:18:17;;;;;;;21.10;11.10;;;;;;;13.35;55.27;103022.38;4970704;28;20027;-80
2022/04/28 09:20:44;;;;;;;19.60;11.20;;;;;;;13.42;54.59;103014.97;4970444;28;20113;-80
2022/04/28 09:23:11;;;;;;;19.77;10.88;;;;;;;13.52;54.51;103013.56;4970049;28;20038;-80
2022/04/28 09:25:39;;;;;;;25.30;12.95;;;;;;;13.61;54.58;103007.81;4971174;28;20070;-81
2022/04/28 09:28:05;;;;;;;18.65;10.45;;;;;;;13.73;54.64;103012.47;4986071;28;20165;-80
2022/04/28 09:30:49;;;;;;;16.83;10.98;;;;;;;13.78;54.74;103001.63;4963938;28;20093;-80
2022/04/28 09:33:18;;;;;;;16.63;10.63;;;;;;;13.84;51.90;103003.94;4970549;28;20081;-80
2022/04/28 09:35:48;;;;;;;19.05;10.40;;;;;;;13.98;53.79;103011.13;4970443;28;20041;-80
2022/04/28 09:38:13;;;;;;;20.17;10.73;;;;;;;14.00;52.77;103004.81;4985672;28;20031;-80
2022/04/28 09:43:26;;;;;;;20.13;10.45;;;;;;;14.20;52.53;102998.47;4970324;28;20517;-78
2022/04/28 09:45:51;;;;;;;16.85;10.38;;;;;;;14.32;52.11;102995.13;4985355;28;20058;-79
2022/04/28 09:48:19;;;;;;;18.52;10.05;;;;;;;14.33;50.87;103001.28;4979319;28;20054;-79
2022/04/28 09:50:50;;;;;;;18.67;10.43;;;;;;;14.48;52.03;102995.19;4968776;28;20097;-80
2022/04/28 09:53:16;;;;;;;17.02;9.73;;;;;;;14.57;51.96;102993.81;4970669;28;20041;-80
2022/04/28 09:55:42;;;;;;;22.52;10.70;;;;;;;14.63;50.07;103001.41;4970984;28;20038;-80
2022/04/28 09:58:09;;;;;;;17.63;10.38;;;;;;;14.62;48.59;102999.69;4969173;28;20030;-80
2022/04/28 10:00:34;;;;;;;16.45;9.85;;;;;;;14.77;49.99;103001.47;4971185;28;20434;-80
2022/04/28 10:03:03;;;;;;;18.95;10.07;;;;;;;14.83;49.48;102989.69;4973913;28;20026;-80
2022/04/28 10:05:29;;;;;;;16.15;9.50;;;;;;;14.99;50.30;102988.69;4966172;28;20046;-80
2022/04/28 10:07:55;;;;;;;18.67;9.52;;;;;;;15.07;48.91;102990.03;4973843;28;20054;-80
2022/04/28 10:10:21;;;;;;;16.83;8.85;;;;;;;15.23;49.11;102989.06;4956506;28;20061;-80
2022/04/28 10:12:48;;;;;;;14.18;8.90;;;;;;;15.22;47.91;102987.34;4973185;28;20031;-78
2022/04/28 10:15:15;;;;;;;14.52;8.68;;;;;;;15.39;47.96;102983.69;4972690;28;20050;-79
2022/04/28 10:17:57;;;;;;;18.23;8.60;;;;;;;15.41;48.59;102986.25;4988770;28;20039;-79
2022/04/28 10:20:42;;;;;;;14.48;8.38;;;;;;;15.52;49.04;102984.63;4971293;28;20027;-78
2022/04/28 10:23:10;;;;;;;14.30;8.57;;;;;;;15.68;48.37;102976.66;4968788;28;20106;-79
2022/04/28 10:34:17;;;;;;;17.13;9.10;;;;;;;15.75;48.22;102963.84;4972569;28;20266;-80
2022/04/28 10:36:56;;;;;;;13.75;8.48;;;;;;;15.74;46.25;102964.78;4972011;28;20034;-78
2022/04/28 10:39:45;;;;;;;13.90;9.02;;;;;;;15.87;47.88;102963.91;5001746;28;20026;-80
2022/04/28 10:42:25;;;;;;;15.82;9.05;;;;;;;15.99;47.20;102964.94;4964899;28;20457;-79
2022/04/28 10:44:56;;;;;;;13.65;8.63;;;;;;;16.11;46.09;102956.22;4973337;28;20041;-80
2022/04/28 10:47:29;;;;;;;18.98;9.48;;;;;;;16.23;46.61;102955.44;4971730;28;20083;-80
2022/04/28 10:49:54;;;;;;;12.73;8.30;;;;;;;16.33;46.47;102954.84;4973271;28;20109;-81
2022/04/28 10:52:22;;;;;;;15.95;8.52;;;;;;;16.46;45.85;102955.75;5004570;28;20190;-81
2022/04/28 10:54:51;;;;;;;16.23;8.68;;;;;;;16.63;46.21;102958.16;4970471;28;20394;-79
2022/04/28 10:57:16;;;;;;;20.15;9.07;;;;;;;16.72;44.78;102960.22;4967554;28;20031;-79
2022/04/28 10:59:48;;;;;;;15.93;8.73;;;;;;;16.91;45.66;102958.06;4973380;28;20034;-80
2022/04/28 11:02:17;;;;;;;14.27;9.25;;;;;;;16.91;43.66;102958.06;4972252;28;20027;-79
2022/04/28 11:04:45;;;;;;;14.13;8.32;;;;;;;17.11;44.92;102954.06;4988117;28;20046;-79
2022/04/28 11:07:23;;;;;;;15.35;9.23;;;;;;;17.20;44.46;102944.59;4973320;28;20103;-80
2022/04/28 11:09:57;;;;;;;12.82;8.50;;;;;;;17.23;44.69;102952.38;4973204;28;20061;-80
2022/04/28 11:12:23;;;;;;;15.00;8.65;;;;;;;17.41;44.80;102947.59;4966273;28;20023;-80
2022/04/28 11:15:05;;;;;;;15.05;8.57;;;;;;;17.61;44.79;102946.19;4968801;28;20124;-81
2022/04/28 11:17:32;;;;;;;14.60;8.30;;;;;;;17.75;44.07;102938.97;4967129;28;20030;-81
2022/04/28 11:20:04;;;;;;;18.30;9.20;;;;;;;17.76;42.82;102934.50;4972741;28;20037;-81
2022/04/28 11:22:30;;;;;;;14.15;8.35;;;;;;;18.02;43.95;102945.97;4955170;28;20081;-81
2022/04/28 11:24:59;;;;;;;18.42;8.85;;;;;;;18.08;43.09;102929.53;4971561;28;20031;-79
2022/04/28 11:27:27;;;;;;;16.48;9.30;;;;;;;18.10;42.41;102935.59;4972561;28;20030;-81
2022/04/28 11:29:58;;;;;;;16.60;11.05;;;;;;;18.01;40.83;102933.56;4970854;28;20627;-81
2022/04/28 11:32:25;;;;;;;16.48;10.45;;;;;;;18.06;41.98;102919.00;4964124;28;20113;-80
2022/04/28 11:34:52;;;;;;;16.75;9.48;;;;;;;18.07;42.11;102918.03;4969705;28;20023;-80
2022/04/28 11:37:24;;;;;;;20.42;9.98;;;;;;;17.99;41.92;102930.19;4972010;28;20445;-81
2022/04/28 11:39:53;;;;;;;15.43;9.07;;;;;;;18.27;42.76;102934.34;4972091;28;20026;-81
2022/04/28 11:42:19;;;;;;;17.00;8.50;;;;;;;18.26;42.67;102932.66;4971965;28;20027;-79
2022/04/28 11:44:52;;;;;;;22.55;9.48;;;;;;;18.48;41.69;102928.31;4972575;28;20106;-79
2022/04/28 11:47:18;;;;;;;15.20;9.32;;;;;;;18.25;40.41;102928.28;4973001;28;20638;-80